sensor_id;sensor_type;location;lat;lon;timestamp;pressure;altitude;pressure_sealevel;temperature;humidity
73516;BME280;61763;51.416;5.442;2022-07-26T00:02:13;101251.88;;;16.20;73.53
73516;BME280;61763;51.416;5.442;2022-07-26T00:04:39;101247.41;;;16.19;73.53
73516;BME280;61763;51.416;5.442;2022-07-26T00:07:04;101246.56;;;16.31;73.00
73516;BME280;61763;51.416;5.442;2022-07-26T00:09:29;101246.06;;;16.39;72.96
73516;BME280;61763;51.416;5.442;2022-07-26T00:11:55;101253.44;;;16.37;72.77
73516;BME280;61763;51.416;5.442;2022-07-26T00:14:21;101255.56;;;16.59;71.86
73516;BME280;61763;51.416;5.442;2022-07-26T00:16:46;101259.56;;;16.53;72.25
73516;BME280;61763;51.416;5.442;2022-07-26T00:19:11;101255.78;;;16.56;71.85
73516;BME280;61763;51.416;5.442;2022-07-26T00:21:37;101253.19;;;16.67;71.85
73516;BME280;61763;51.416;5.442;2022-07-26T00:24:03;101242.06;;;16.70;71.25
73516;BME280;61763;51.416;5.442;2022-07-26T00:26:29;101250.88;;;16.74;71.38
73516;BME280;61763;51.416;5.442;2022-07-26T00:28:54;101257.28;;;16.87;71.02
73516;BME280;61763;51.416;5.442;2022-07-26T00:31:20;101247.03;;;16.91;70.81
73516;BME280;61763;51.416;5.442;2022-07-26T00:33:45;101258.16;;;16.88;71.07
73516;BME280;61763;51.416;5.442;2022-07-26T00:36:10;101259.19;;;16.85;71.54
73516;BME280;61763;51.416;5.442;2022-07-26T00:38:36;101264.88;;;16.82;71.71
73516;BME280;61763;51.416;5.442;2022-07-26T00:41:03;101255.84;;;16.94;71.17
73516;BME280;61763;51.416;5.442;2022-07-26T00:43:29;101266.31;;;16.88;71.70
73516;BME280;61763;51.416;5.442;2022-07-26T00:45:54;101253.91;;;16.96;71.60
73516;BME280;61763;51.416;5.442;2022-07-26T00:48:19;101263.09;;;16.81;71.64
73516;BME280;61763;51.416;5.442;2022-07-26T00:50:45;101258.00;;;16.76;72.47
73516;BME280;61763;51.416;5.442;2022-07-26T00:53:10;101253.50;;;16.75;71.94
73516;BME280;61763;51.416;5.442;2022-07-26T00:55:36;101258.66;;;16.80;72.00
73516;BME280;61763;51.416;5.442;2022-07-26T00:58:01;101268.44;;;16.82;71.80
73516;BME280;61763;51.416;5.442;2022-07-26T01:00:28;101254.72;;;16.71;72.13
73516;BME280;61763;51.416;5.442;2022-07-26T01:02:54;101259.97;;;16.74;72.25
73516;BME280;61763;51.416;5.442;2022-07-26T01:05:21;101261.91;;;16.72;72.54
73516;BME280;61763;51.416;5.442;2022-07-26T01:07:48;101258.66;;;16.80;72.21
73516;BME280;61763;51.416;5.442;2022-07-26T01:10:13;101253.84;;;16.84;71.90
73516;BME280;61763;51.416;5.442;2022-07-26T01:12:42;101253.00;;;16.96;71.29
73516;BME280;61763;51.416;5.442;2022-07-26T01:15:09;101254.56;;;16.87;71.75
73516;BME280;61763;51.416;5.442;2022-07-26T01:17:34;101251.50;;;16.92;71.79
73516;BME280;61763;51.416;5.442;2022-07-26T01:20:01;101250.09;;;16.99;71.37
73516;BME280;61763;51.416;5.442;2022-07-26T01:22:26;101246.13;;;17.03;71.25
73516;BME280;61763;51.416;5.442;2022-07-26T01:24:52;101244.09;;;17.07;71.57
73516;BME280;61763;51.416;5.442;2022-07-26T01:27:17;101246.47;;;16.98;71.81
73516;BME280;61763;51.416;5.442;2022-07-26T01:29:43;101243.75;;;16.98;72.08
73516;BME280;61763;51.416;5.442;2022-07-26T01:32:08;101239.59;;;17.06;72.05
73516;BME280;61763;51.416;5.442;2022-07-26T01:34:34;101239.81;;;17.03;72.15
73516;BME280;61763;51.416;5.442;2022-07-26T01:36:59;101238.63;;;16.94;72.25
73516;BME280;61763;51.416;5.442;2022-07-26T01:39:25;101242.22;;;17.07;72.33
73516;BME280;61763;51.416;5.442;2022-07-26T01:41:51;101235.91;;;17.07;72.34
73516;BME280;61763;51.416;5.442;2022-07-26T01:44:17;101237.84;;;17.05;72.42
73516;BME280;61763;51.416;5.442;2022-07-26T01:46:42;101242.56;;;17.03;72.46
73516;BME280;61763;51.416;5.442;2022-07-26T01:49:08;101235.22;;;17.03;72.83
73516;BME280;61763;51.416;5.442;2022-07-26T01:51:34;101242.03;;;16.97;72.89
73516;BME280;61763;51.416;5.442;2022-07-26T01:54:00;101240.16;;;16.98;73.30
73516;BME280;61763;51.416;5.442;2022-07-26T01:56:26;101243.84;;;17.10;72.69
73516;BME280;61763;51.416;5.442;2022-07-26T01:58:51;101249.31;;;17.10;73.09
73516;BME280;61763;51.416;5.442;2022-07-26T02:01:17;101246.69;;;17.08;73.06
73516;BME280;61763;51.416;5.442;2022-07-26T02:03:42;101252.72;;;17.01;73.18
73516;BME280;61763;51.416;5.442;2022-07-26T02:06:08;101248.97;;;17.02;73.48
73516;BME280;61763;51.416;5.442;2022-07-26T02:08:33;101258.38;;;16.97;73.44
73516;BME280;61763;51.416;5.442;2022-07-26T02:10:59;101245.06;;;16.93;73.60
73516;BME280;61763;51.416;5.442;2022-07-26T02:13:25;101256.75;;;16.95;73.79
73516;BME280;61763;51.416;5.442;2022-07-26T02:15:51;101262.59;;;17.02;73.61
73516;BME280;61763;51.416;5.442;2022-07-26T02:18:16;101258.78;;;16.91;74.27
73516;BME280;61763;51.416;5.442;2022-07-26T02:20:42;101268.22;;;16.86;74.57
73516;BME280;61763;51.416;5.442;2022-07-26T02:23:07;101269.91;;;16.88;74.53
73516;BME280;61763;51.416;5.442;2022-07-26T02:25:32;101264.69;;;16.98;74.01
73516;BME280;61763;51.416;5.442;2022-07-26T02:27:58;101259.56;;;16.93;74.17
73516;BME280;61763;51.416;5.442;2022-07-26T02:30:25;101264.91;;;16.95;74.31
73516;BME280;61763;51.416;5.442;2022-07-26T02:32:50;101269.28;;;16.97;74.17
73516;BME280;61763;51.416;5.442;2022-07-26T02:35:16;101261.81;;;16.87;74.76
73516;BME280;61763;51.416;5.442;2022-07-26T02:37:41;101269.13;;;16.86;74.52
73516;BME280;61763;51.416;5.442;2022-07-26T02:40:08;101265.94;;;16.79;75.22
73516;BME280;61763;51.416;5.442;2022-07-26T02:42:34;101279.47;;;16.81;74.78
73516;BME280;61763;51.416;5.442;2022-07-26T02:44:59;101273.78;;;16.84;74.93
73516;BME280;61763;51.416;5.442;2022-07-26T02:47:25;101275.44;;;16.87;75.02
73516;BME280;61763;51.416;5.442;2022-07-26T02:49:50;101279.69;;;16.78;74.88
73516;BME280;61763;51.416;5.442;2022-07-26T02:52:16;101276.41;;;16.73;75.80
73516;BME280;61763;51.416;5.442;2022-07-26T02:54:42;101275.16;;;16.91;74.99
73516;BME280;61763;51.416;5.442;2022-07-26T02:57:07;101283.84;;;16.84;75.74
73516;BME280;61763;51.416;5.442;2022-07-26T02:59:33;101281.22;;;16.82;75.64
73516;BME280;61763;51.416;5.442;2022-07-26T03:01:58;101284.16;;;16.79;75.78
73516;BME280;61763;51.416;5.442;2022-07-26T03:04:23;101284.16;;;16.79;75.96
73516;BME280;61763;51.416;5.442;2022-07-26T03:06:49;101278.94;;;16.76;76.26
73516;BME280;61763;51.416;5.442;2022-07-26T03:09:14;101279.69;;;16.78;76.16
73516;BME280;61763;51.416;5.442;2022-07-26T03:11:40;101286.16;;;16.90;75.76
73516;BME280;61763;51.416;5.442;2022-07-26T03:14:05;101292.13;;;16.82;76.34
73516;BME280;61763;51.416;5.442;2022-07-26T03:16:31;101290.38;;;16.81;76.37
73516;BME280;61763;51.416;5.442;2022-07-26T03:18:57;101290.69;;;16.76;76.36
73516;BME280;61763;51.416;5.442;2022-07-26T03:21:22;101299.66;;;16.78;76.31
73516;BME280;61763;51.416;5.442;2022-07-26T03:23:48;101300.84;;;16.74;76.72
73516;BME280;61763;51.416;5.442;2022-07-26T03:26:14;101301.16;;;16.82;76.63
73516;BME280;61763;51.416;5.442;2022-07-26T03:28:40;101299.97;;;16.87;76.03
73516;BME280;61763;51.416;5.442;2022-07-26T03:31:07;101301.84;;;16.86;76.07
73516;BME280;61763;51.416;5.442;2022-07-26T03:33:32;101309.13;;;16.86;76.62
73516;BME280;61763;51.416;5.442;2022-07-26T03:35:57;101305.75;;;16.82;76.35
73516;BME280;61763;51.416;5.442;2022-07-26T03:38:23;101301.91;;;16.72;76.71
73516;BME280;61763;51.416;5.442;2022-07-26T03:40:49;101317.84;;;16.78;76.82
73516;BME280;61763;51.416;5.442;2022-07-26T03:43:14;101314.47;;;16.74;76.58
73516;BME280;61763;51.416;5.442;2022-07-26T03:45:40;101317.09;;;16.76;76.77
73516;BME280;61763;51.416;5.442;2022-07-26T03:48:06;101315.75;;;16.69;77.30
73516;BME280;61763;51.416;5.442;2022-07-26T03:50:32;101312.06;;;16.70;77.51
73516;BME280;61763;51.416;5.442;2022-07-26T03:52:57;101320.03;;;16.73;77.12
73516;BME280;61763;51.416;5.442;2022-07-26T03:55:22;101328.53;;;16.68;77.26
73516;BME280;61763;51.416;5.442;2022-07-26T03:58:06;101326.66;;;16.69;77.32
73516;BME280;61763;51.416;5.442;2022-07-26T04:00:31;101322.06;;;16.69;77.53
73516;BME280;61763;51.416;5.442;2022-07-26T04:02:57;101320.13;;;16.71;77.73
73516;BME280;61763;51.416;5.442;2022-07-26T04:05:22;101329.75;;;16.77;77.43
73516;BME280;61763;51.416;5.442;2022-07-26T04:07:47;101321.50;;;16.91;76.82
73516;BME280;61763;51.416;5.442;2022-07-26T04:10:13;101324.09;;;16.93;76.74
73516;BME280;61763;51.416;5.442;2022-07-26T04:12:40;101324.94;;;16.80;77.07
73516;BME280;61763;51.416;5.442;2022-07-26T04:15:06;101320.78;;;16.75;77.79
73516;BME280;61763;51.416;5.442;2022-07-26T04:17:39;101324.56;;;16.72;77.56
73516;BME280;61763;51.416;5.442;2022-07-26T04:20:06;101330.03;;;16.72;78.01
73516;BME280;61763;51.416;5.442;2022-07-26T04:22:36;101335.84;;;16.80;77.55
73516;BME280;61763;51.416;5.442;2022-07-26T04:25:04;101339.06;;;16.87;77.46
73516;BME280;61763;51.416;5.442;2022-07-26T04:27:30;101343.91;;;16.82;77.72
73516;BME280;61763;51.416;5.442;2022-07-26T04:29:55;101339.94;;;16.88;77.59
73516;BME280;61763;51.416;5.442;2022-07-26T04:32:21;101336.38;;;16.86;77.72
73516;BME280;61763;51.416;5.442;2022-07-26T04:34:46;101337.34;;;16.99;77.39
73516;BME280;61763;51.416;5.442;2022-07-26T04:37:12;101350.19;;;16.97;77.59
73516;BME280;61763;51.416;5.442;2022-07-26T04:39:37;101344.50;;;17.00;77.32
73516;BME280;61763;51.416;5.442;2022-07-26T04:42:03;101340.94;;;17.12;77.04
73516;BME280;61763;51.416;5.442;2022-07-26T04:44:28;101343.66;;;16.99;77.19
73516;BME280;61763;51.416;5.442;2022-07-26T04:46:54;101344.28;;;17.03;77.40
73516;BME280;61763;51.416;5.442;2022-07-26T04:49:19;101352.94;;;17.10;77.29
73516;BME280;61763;51.416;5.442;2022-07-26T04:51:44;101358.06;;;17.14;77.37
73516;BME280;61763;51.416;5.442;2022-07-26T04:54:10;101358.94;;;17.28;77.04
73516;BME280;61763;51.416;5.442;2022-07-26T04:56:35;101355.03;;;17.32;76.13
73516;BME280;61763;51.416;5.442;2022-07-26T04:59:00;101355.91;;;17.20;76.52
73516;BME280;61763;51.416;5.442;2022-07-26T05:01:26;101356.09;;;17.29;75.72
73516;BME280;61763;51.416;5.442;2022-07-26T05:03:51;101353.84;;;17.36;75.96
73516;BME280;61763;51.416;5.442;2022-07-26T05:06:16;101351.63;;;17.41;75.64
73516;BME280;61763;51.416;5.442;2022-07-26T05:08:42;101352.31;;;17.45;75.67
73516;BME280;61763;51.416;5.442;2022-07-26T05:11:09;101350.09;;;17.50;75.73
73516;BME280;61763;51.416;5.442;2022-07-26T05:13:34;101357.53;;;17.48;75.52
73516;BME280;61763;51.416;5.442;2022-07-26T05:16:00;101359.25;;;17.49;75.67
73516;BME280;61763;51.416;5.442;2022-07-26T05:18:26;101361.47;;;17.44;76.22
73516;BME280;61763;51.416;5.442;2022-07-26T05:20:52;101370.28;;;17.47;75.71
73516;BME280;61763;51.416;5.442;2022-07-26T05:23:17;101365.63;;;17.49;76.04
73516;BME280;61763;51.416;5.442;2022-07-26T05:25:44;101364.19;;;17.57;75.75
73516;BME280;61763;51.416;5.442;2022-07-26T05:28:09;101367.91;;;17.56;75.43
73516;BME280;61763;51.416;5.442;2022-07-26T05:30:35;101381.00;;;17.50;76.21
73516;BME280;61763;51.416;5.442;2022-07-26T05:33:01;101384.84;;;17.61;76.00
73516;BME280;61763;51.416;5.442;2022-07-26T05:35:26;101377.81;;;17.82;74.86
73516;BME280;61763;51.416;5.442;2022-07-26T05:37:52;101381.44;;;17.83;74.42
73516;BME280;61763;51.416;5.442;2022-07-26T05:40:17;101385.28;;;17.93;73.99
73516;BME280;61763;51.416;5.442;2022-07-26T05:42:42;101380.22;;;18.00;74.10
73516;BME280;61763;51.416;5.442;2022-07-26T05:45:08;101381.84;;;18.15;73.66
73516;BME280;61763;51.416;5.442;2022-07-26T05:47:34;101381.09;;;18.62;71.46
73516;BME280;61763;51.416;5.442;2022-07-26T05:49:59;101381.19;;;18.84;70.99
73516;BME280;61763;51.416;5.442;2022-07-26T05:52:25;101387.81;;;19.29;70.01
73516;BME280;61763;51.416;5.442;2022-07-26T05:54:50;101385.06;;;19.64;68.30
73516;BME280;61763;51.416;5.442;2022-07-26T05:57:16;101389.06;;;19.83;66.88
73516;BME280;61763;51.416;5.442;2022-07-26T05:59:41;101386.56;;;19.91;66.28
73516;BME280;61763;51.416;5.442;2022-07-26T06:02:07;101390.06;;;19.93;65.80
73516;BME280;61763;51.416;5.442;2022-07-26T06:04:33;101393.66;;;20.05;65.66
73516;BME280;61763;51.416;5.442;2022-07-26T06:06:58;101399.00;;;20.18;65.08
73516;BME280;61763;51.416;5.442;2022-07-26T06:09:24;101402.38;;;19.99;66.58
73516;BME280;61763;51.416;5.442;2022-07-26T06:11:51;101402.00;;;19.92;66.46
73516;BME280;61763;51.416;5.442;2022-07-26T06:14:17;101408.66;;;19.65;67.05
73516;BME280;61763;51.416;5.442;2022-07-26T06:16:45;101406.38;;;19.83;67.41
73516;BME280;61763;51.416;5.442;2022-07-26T06:19:10;101411.84;;;19.83;66.95
73516;BME280;61763;51.416;5.442;2022-07-26T06:21:35;101410.56;;;19.76;66.74
73516;BME280;61763;51.416;5.442;2022-07-26T06:24:01;101407.66;;;19.55;68.18
73516;BME280;61763;51.416;5.442;2022-07-26T06:26:26;101417.13;;;19.51;68.45
73516;BME280;61763;51.416;5.442;2022-07-26T06:28:52;101417.47;;;19.46;68.14
73516;BME280;61763;51.416;5.442;2022-07-26T06:31:18;101413.31;;;19.76;67.61
73516;BME280;61763;51.416;5.442;2022-07-26T06:33:43;101418.06;;;20.08;66.11
73516;BME280;61763;51.416;5.442;2022-07-26T06:36:09;101419.03;;;20.41;65.22
73516;BME280;61763;51.416;5.442;2022-07-26T06:38:34;101416.91;;;20.44;64.78
73516;BME280;61763;51.416;5.442;2022-07-26T06:41:00;101416.69;;;20.80;63.27
73516;BME280;61763;51.416;5.442;2022-07-26T06:43:25;101419.09;;;20.73;63.81
73516;BME280;61763;51.416;5.442;2022-07-26T06:45:50;101413.34;;;20.65;63.99
73516;BME280;61763;51.416;5.442;2022-07-26T06:48:16;101418.47;;;20.70;63.80
73516;BME280;61763;51.416;5.442;2022-07-26T06:50:41;101418.47;;;20.70;64.47
73516;BME280;61763;51.416;5.442;2022-07-26T06:53:07;101418.91;;;21.18;62.22
73516;BME280;61763;51.416;5.442;2022-07-26T06:55:32;101419.66;;;21.21;61.68
73516;BME280;61763;51.416;5.442;2022-07-26T06:57:57;101430.03;;;20.85;62.79
73516;BME280;61763;51.416;5.442;2022-07-26T07:00:23;101429.94;;;20.75;62.69
73516;BME280;61763;51.416;5.442;2022-07-26T07:02:48;101433.47;;;20.43;64.37
73516;BME280;61763;51.416;5.442;2022-07-26T07:05:14;101431.38;;;20.46;62.89
73516;BME280;61763;51.416;5.442;2022-07-26T07:07:39;101437.19;;;20.53;63.12
73516;BME280;61763;51.416;5.442;2022-07-26T07:10:05;101436.41;;;20.85;62.27
73516;BME280;61763;51.416;5.442;2022-07-26T07:12:30;101440.03;;;21.07;60.68
73516;BME280;61763;51.416;5.442;2022-07-26T07:14:56;101442.97;;;20.94;60.71
73516;BME280;61763;51.416;5.442;2022-07-26T07:17:22;101441.19;;;20.49;61.64
73516;BME280;61763;51.416;5.442;2022-07-26T07:19:47;101442.47;;;20.34;61.69
73516;BME280;61763;51.416;5.442;2022-07-26T07:22:13;101441.69;;;20.31;61.25
73516;BME280;61763;51.416;5.442;2022-07-26T07:24:40;101442.34;;;20.46;61.53
73516;BME280;61763;51.416;5.442;2022-07-26T07:27:06;101438.16;;;20.63;61.21
73516;BME280;61763;51.416;5.442;2022-07-26T07:29:32;101447.84;;;20.90;59.68
73516;BME280;61763;51.416;5.442;2022-07-26T07:31:58;101446.56;;;21.27;57.25
73516;BME280;61763;51.416;5.442;2022-07-26T07:34:23;101456.59;;;21.16;56.68
73516;BME280;61763;51.416;5.442;2022-07-26T07:36:49;101451.91;;;21.07;57.11
73516;BME280;61763;51.416;5.442;2022-07-26T07:39:15;101453.94;;;21.47;57.40
73516;BME280;61763;51.416;5.442;2022-07-26T07:41:41;101447.16;;;21.63;54.87
73516;BME280;61763;51.416;5.442;2022-07-26T07:44:06;101450.09;;;21.71;56.09
73516;BME280;61763;51.416;5.442;2022-07-26T07:46:32;101447.53;;;22.10;54.88
73516;BME280;61763;51.416;5.442;2022-07-26T07:48:57;101442.53;;;22.25;53.29
73516;BME280;61763;51.416;5.442;2022-07-26T07:51:24;101454.38;;;21.64;54.96
73516;BME280;61763;51.416;5.442;2022-07-26T07:53:49;101451.28;;;21.78;55.01
73516;BME280;61763;51.416;5.442;2022-07-26T07:56:16;101444.69;;;21.91;54.73
73516;BME280;61763;51.416;5.442;2022-07-26T07:58:42;101446.81;;;21.56;54.79
73516;BME280;61763;51.416;5.442;2022-07-26T08:01:07;101450.59;;;21.86;55.71
73516;BME280;61763;51.416;5.442;2022-07-26T08:03:33;101459.44;;;21.68;55.06
73516;BME280;61763;51.416;5.442;2022-07-26T08:05:58;101448.53;;;22.40;52.63
73516;BME280;61763;51.416;5.442;2022-07-26T08:08:24;101455.88;;;22.70;53.09
73516;BME280;61763;51.416;5.442;2022-07-26T08:10:50;101441.84;;;23.03;51.13
73516;BME280;61763;51.416;5.442;2022-07-26T08:13:16;101448.91;;;23.74;48.21
73516;BME280;61763;51.416;5.442;2022-07-26T08:15:41;101447.22;;;23.53;48.52
73516;BME280;61763;51.416;5.442;2022-07-26T08:18:07;101450.66;;;23.65;49.90
73516;BME280;61763;51.416;5.442;2022-07-26T08:20:32;101453.44;;;23.65;48.87
73516;BME280;61763;51.416;5.442;2022-07-26T08:22:58;101458.13;;;23.35;48.85
73516;BME280;61763;51.416;5.442;2022-07-26T08:25:23;101456.19;;;23.65;48.53
73516;BME280;61763;51.416;5.442;2022-07-26T08:27:49;101465.06;;;23.20;49.77
73516;BME280;61763;51.416;5.442;2022-07-26T08:30:14;101455.03;;;23.58;48.71
73516;BME280;61763;51.416;5.442;2022-07-26T08:32:40;101460.53;;;22.99;50.08
73516;BME280;61763;51.416;5.442;2022-07-26T08:35:06;101464.25;;;22.79;51.79
73516;BME280;61763;51.416;5.442;2022-07-26T08:37:31;101465.47;;;22.96;51.21
73516;BME280;61763;51.416;5.442;2022-07-26T08:39:56;101467.19;;;22.97;50.23
73516;BME280;61763;51.416;5.442;2022-07-26T08:42:22;101487.25;;;22.58;52.00
73516;BME280;61763;51.416;5.442;2022-07-26T08:44:48;101493.13;;;22.44;53.58
73516;BME280;61763;51.416;5.442;2022-07-26T08:47:16;101488.81;;;22.51;53.21
73516;BME280;61763;51.416;5.442;2022-07-26T08:49:42;101495.44;;;22.38;52.79
73516;BME280;61763;51.416;5.442;2022-07-26T08:52:10;101505.13;;;22.12;53.86
73516;BME280;61763;51.416;5.442;2022-07-26T08:54:48;101500.41;;;21.72;55.18
73516;BME280;61763;51.416;5.442;2022-07-26T08:57:14;101500.88;;;21.56;55.34
73516;BME280;61763;51.416;5.442;2022-07-26T08:59:40;101511.50;;;21.38;57.06
73516;BME280;61763;51.416;5.442;2022-07-26T09:02:09;101513.38;;;21.16;60.18
73516;BME280;61763;51.416;5.442;2022-07-26T09:04:37;101524.22;;;21.17;60.67
73516;BME280;61763;51.416;5.442;2022-07-26T09:07:10;101515.69;;;21.32;60.15
73516;BME280;61763;51.416;5.442;2022-07-26T09:12:21;101518.44;;;21.64;59.61
73516;BME280;61763;51.416;5.442;2022-07-26T09:14:47;101524.25;;;21.71;59.69
73516;BME280;61763;51.416;5.442;2022-07-26T09:17:15;101523.84;;;21.76;58.50
73516;BME280;61763;51.416;5.442;2022-07-26T09:19:41;101526.75;;;21.95;57.80
73516;BME280;61763;51.416;5.442;2022-07-26T09:22:09;101529.34;;;21.76;58.13
73516;BME280;61763;51.416;5.442;2022-07-26T09:24:38;101536.44;;;21.78;59.07
73516;BME280;61763;51.416;5.442;2022-07-26T09:27:07;101533.25;;;21.73;58.62
73516;BME280;61763;51.416;5.442;2022-07-26T09:32:20;101532.53;;;22.02;57.58
73516;BME280;61763;51.416;5.442;2022-07-26T09:34:49;101528.59;;;22.78;57.37
73516;BME280;61763;51.416;5.442;2022-07-26T09:37:15;101533.44;;;22.64;56.15
73516;BME280;61763;51.416;5.442;2022-07-26T09:39:55;101533.47;;;23.15;52.73
73516;BME280;61763;51.416;5.442;2022-07-26T09:42:22;101526.22;;;23.43;52.46
73516;BME280;61763;51.416;5.442;2022-07-26T09:44:48;101519.56;;;23.75;50.50
73516;BME280;61763;51.416;5.442;2022-07-26T09:47:13;101516.53;;;23.49;51.90
73516;BME280;61763;51.416;5.442;2022-07-26T09:49:40;101522.59;;;23.72;52.14
73516;BME280;61763;51.416;5.442;2022-07-26T09:52:12;101523.97;;;24.53;49.46
73516;BME280;61763;51.416;5.442;2022-07-26T09:54:38;101526.00;;;24.13;50.01
73516;BME280;61763;51.416;5.442;2022-07-26T09:57:04;101537.63;;;24.17;50.63
73516;BME280;61763;51.416;5.442;2022-07-26T09:59:29;101539.72;;;23.26;52.80
73516;BME280;61763;51.416;5.442;2022-07-26T10:01:57;101537.03;;;23.05;53.80
73516;BME280;61763;51.416;5.442;2022-07-26T10:04:23;101550.34;;;22.50;55.91
73516;BME280;61763;51.416;5.442;2022-07-26T10:06:49;101547.69;;;21.96;57.72
73516;BME280;61763;51.416;5.442;2022-07-26T10:09:15;101551.44;;;21.74;57.16
73516;BME280;61763;51.416;5.442;2022-07-26T10:11:43;101551.94;;;21.79;57.33
73516;BME280;61763;51.416;5.442;2022-07-26T10:16:58;101556.72;;;22.08;56.64
73516;BME280;61763;51.416;5.442;2022-07-26T10:19:39;101558.59;;;22.29;55.70
73516;BME280;61763;51.416;5.442;2022-07-26T10:24:49;101570.19;;;22.53;54.85
73516;BME280;61763;51.416;5.442;2022-07-26T10:27:37;101562.56;;;22.67;54.34
73516;BME280;61763;51.416;5.442;2022-07-26T10:38:00;101600.81;;;20.64;67.22
73516;BME280;61763;51.416;5.442;2022-07-26T10:40:27;101601.81;;;19.34;73.00
73516;BME280;61763;51.416;5.442;2022-07-26T10:43:16;101604.28;;;18.50;77.21
73516;BME280;61763;51.416;5.442;2022-07-26T10:45:42;101605.81;;;18.28;77.87
73516;BME280;61763;51.416;5.442;2022-07-26T10:48:16;101616.53;;;18.18;80.37
73516;BME280;61763;51.416;5.442;2022-07-26T10:50:45;101619.69;;;18.38;79.88
73516;BME280;61763;51.416;5.442;2022-07-26T10:53:17;101625.03;;;18.65;80.13
73516;BME280;61763;51.416;5.442;2022-07-26T10:55:47;101614.50;;;18.85;78.74
73516;BME280;61763;51.416;5.442;2022-07-26T10:58:13;101612.41;;;19.14;78.99
73516;BME280;61763;51.416;5.442;2022-07-26T11:00:39;101618.06;;;19.48;74.55
73516;BME280;61763;51.416;5.442;2022-07-26T11:03:04;101610.72;;;19.73;76.90
73516;BME280;61763;51.416;5.442;2022-07-26T11:05:31;101617.34;;;19.82;72.92
73516;BME280;61763;51.416;5.442;2022-07-26T11:08:02;101611.63;;;20.31;72.22
73516;BME280;61763;51.416;5.442;2022-07-26T11:10:37;101617.94;;;20.68;69.20
73516;BME280;61763;51.416;5.442;2022-07-26T11:13:14;101616.44;;;20.86;71.37
73516;BME280;61763;51.416;5.442;2022-07-26T11:15:45;101612.47;;;21.45;68.44
73516;BME280;61763;51.416;5.442;2022-07-26T11:20:44;101621.16;;;22.15;65.16
73516;BME280;61763;51.416;5.442;2022-07-26T11:31:18;101623.34;;;22.95;62.01
73516;BME280;61763;51.416;5.442;2022-07-26T11:33:46;101621.78;;;22.40;60.54
73516;BME280;61763;51.416;5.442;2022-07-26T11:36:17;101630.06;;;22.29;60.07
73516;BME280;61763;51.416;5.442;2022-07-26T11:41:24;101638.56;;;21.40;62.14
73516;BME280;61763;51.416;5.442;2022-07-26T11:43:52;101636.91;;;20.82;63.93
73516;BME280;61763;51.416;5.442;2022-07-26T11:46:18;101641.56;;;20.35;63.70
73516;BME280;61763;51.416;5.442;2022-07-26T11:48:50;101642.72;;;19.97;65.69
73516;BME280;61763;51.416;5.442;2022-07-26T11:51:22;101648.34;;;19.58;66.88
73516;BME280;61763;51.416;5.442;2022-07-26T11:53:49;101653.66;;;19.11;70.01
73516;BME280;61763;51.416;5.442;2022-07-26T11:56:22;101658.94;;;18.88;71.57
73516;BME280;61763;51.416;5.442;2022-07-26T11:58:49;101663.09;;;18.68;72.98
73516;BME280;61763;51.416;5.442;2022-07-26T12:01:18;101655.66;;;18.70;72.87
73516;BME280;61763;51.416;5.442;2022-07-26T12:03:47;101658.91;;;18.76;72.92
73516;BME280;61763;51.416;5.442;2022-07-26T12:06:15;101657.50;;;18.83;74.37
73516;BME280;61763;51.416;5.442;2022-07-26T12:08:46;101660.56;;;19.04;72.65
73516;BME280;61763;51.416;5.442;2022-07-26T12:11:13;101656.28;;;19.13;70.67
73516;BME280;61763;51.416;5.442;2022-07-26T12:13:58;101656.72;;;19.06;72.42
73516;BME280;61763;51.416;5.442;2022-07-26T12:16:50;101661.59;;;19.27;72.46
73516;BME280;61763;51.416;5.442;2022-07-26T12:21:46;101660.81;;;19.62;68.48
73516;BME280;61763;51.416;5.442;2022-07-26T12:27:16;101658.97;;;19.87;68.82
73516;BME280;61763;51.416;5.442;2022-07-26T12:29:50;101647.72;;;20.03;66.11
73516;BME280;61763;51.416;5.442;2022-07-26T12:35:06;101656.25;;;20.34;64.07
73516;BME280;61763;51.416;5.442;2022-07-26T12:37:55;101654.50;;;20.33;63.47
73516;BME280;61763;51.416;5.442;2022-07-26T12:45:19;101647.56;;;20.51;61.06
73516;BME280;61763;51.416;5.442;2022-07-26T12:47:47;101658.13;;;20.44;63.10
73516;BME280;61763;51.416;5.442;2022-07-26T12:50:15;101656.38;;;20.43;61.12
73516;BME280;61763;51.416;5.442;2022-07-26T12:52:41;101653.53;;;20.45;60.35
73516;BME280;61763;51.416;5.442;2022-07-26T12:55:09;101650.69;;;20.46;60.16
73516;BME280;61763;51.416;5.442;2022-07-26T12:57:36;101640.34;;;20.50;59.56
73516;BME280;61763;51.416;5.442;2022-07-26T13:00:03;101653.84;;;20.76;59.88
73516;BME280;61763;51.416;5.442;2022-07-26T13:02:29;101655.47;;;20.90;58.18
73516;BME280;61763;51.416;5.442;2022-07-26T13:04:54;101654.34;;;20.81;57.27
73516;BME280;61763;51.416;5.442;2022-07-26T13:07:20;101655.34;;;20.80;56.79
73516;BME280;61763;51.416;5.442;2022-07-26T13:09:46;101654.63;;;20.89;57.33
73516;BME280;61763;51.416;5.442;2022-07-26T13:12:13;101652.13;;;20.75;57.64
73516;BME280;61763;51.416;5.442;2022-07-26T13:14:39;101650.56;;;20.59;58.37
73516;BME280;61763;51.416;5.442;2022-07-26T13:17:06;101650.44;;;20.61;58.97
73516;BME280;61763;51.416;5.442;2022-07-26T13:19:33;101649.56;;;20.60;59.72
73516;BME280;61763;51.416;5.442;2022-07-26T13:21:59;101651.56;;;20.47;59.30
73516;BME280;61763;51.416;5.442;2022-07-26T13:24:26;101654.13;;;20.26;59.55
73516;BME280;61763;51.416;5.442;2022-07-26T13:26:52;101665.69;;;20.18;60.93
73516;BME280;61763;51.416;5.442;2022-07-26T13:29:18;101675.97;;;20.03;61.73
73516;BME280;61763;51.416;5.442;2022-07-26T13:31:43;101676.00;;;19.79;61.53
73516;BME280;61763;51.416;5.442;2022-07-26T13:34:09;101682.94;;;19.35;62.95